sensor_id;sensor_type;location;lat;lon;timestamp;P1;durP1;ratioP1;P2;durP2;ratioP2
36189;SDS011;22232;50.914;13.858;2022-10-16T00:01:37;18.05;;;14.55;;
36189;SDS011;22232;50.914;13.858;2022-10-16T00:04:05;18.55;;;15.25;;
36189;SDS011;22232;50.914;13.858;2022-10-16T00:06:32;17.25;;;14.90;;
36189;SDS011;22232;50.914;13.858;2022-10-16T00:09:00;18.02;;;14.73;;
36189;SDS011;22232;50.914;13.858;2022-10-16T00:11:29;18.67;;;14.70;;
36189;SDS011;22232;50.914;13.858;2022-10-16T00:14:04;18.20;;;15.35;;
36189;SDS011;22232;50.914;13.858;2022-10-16T00:16:35;18.52;;;14.88;;
36189;SDS011;22232;50.914;13.858;2022-10-16T00:19:04;17.83;;;14.75;;
36189;SDS011;22232;50.914;13.858;2022-10-16T00:21:32;18.88;;;15.20;;
36189;SDS011;22232;50.914;13.858;2022-10-16T00:24:01;18.77;;;14.50;;
36189;SDS011;22232;50.914;13.858;2022-10-16T00:26:35;17.40;;;13.85;;
36189;SDS011;22232;50.914;13.858;2022-10-16T00:29:04;18.55;;;14.13;;
36189;SDS011;22232;50.914;13.858;2022-10-16T00:31:33;20.40;;;14.55;;
36189;SDS011;22232;50.914;13.858;2022-10-16T00:34:00;17.38;;;13.73;;
36189;SDS011;22232;50.914;13.858;2022-10-16T00:36:28;16.35;;;13.65;;
36189;SDS011;22232;50.914;13.858;2022-10-16T00:38:56;18.25;;;14.70;;
36189;SDS011;22232;50.914;13.858;2022-10-16T00:41:32;19.30;;;14.93;;
36189;SDS011;22232;50.914;13.858;2022-10-16T00:44:04;18.50;;;14.73;;
36189;SDS011;22232;50.914;13.858;2022-10-16T00:47:07;18.63;;;15.05;;
36189;SDS011;22232;50.914;13.858;2022-10-16T00:49:37;18.92;;;14.75;;
36189;SDS011;22232;50.914;13.858;2022-10-16T00:52:04;17.30;;;14.15;;
36189;SDS011;22232;50.914;13.858;2022-10-16T00:54:32;23.27;;;15.90;;
36189;SDS011;22232;50.914;13.858;2022-10-16T00:57:01;18.10;;;14.52;;
36189;SDS011;22232;50.914;13.858;2022-10-16T00:59:38;17.48;;;14.40;;
36189;SDS011;22232;50.914;13.858;2022-10-16T01:02:09;20.17;;;15.48;;
36189;SDS011;22232;50.914;13.858;2022-10-16T01:04:40;21.25;;;14.88;;
36189;SDS011;22232;50.914;13.858;2022-10-16T01:07:12;18.48;;;14.82;;
36189;SDS011;22232;50.914;13.858;2022-10-16T01:12:41;24.70;;;16.40;;
36189;SDS011;22232;50.914;13.858;2022-10-16T01:17:45;19.80;;;15.02;;
36189;SDS011;22232;50.914;13.858;2022-10-16T01:20:47;19.95;;;14.52;;
36189;SDS011;22232;50.914;13.858;2022-10-16T01:26:31;20.20;;;14.95;;
36189;SDS011;22232;50.914;13.858;2022-10-16T01:29:06;19.15;;;14.38;;
36189;SDS011;22232;50.914;13.858;2022-10-16T01:31:40;19.15;;;14.73;;
36189;SDS011;22232;50.914;13.858;2022-10-16T01:34:15;18.77;;;14.05;;
36189;SDS011;22232;50.914;13.858;2022-10-16T01:37:32;19.50;;;13.85;;
36189;SDS011;22232;50.914;13.858;2022-10-16T01:39:39;18.45;;;14.15;;
36189;SDS011;22232;50.914;13.858;2022-10-16T01:42:20;19.88;;;14.63;;
36189;SDS011;22232;50.914;13.858;2022-10-16T01:44:51;18.38;;;13.82;;
36189;SDS011;22232;50.914;13.858;2022-10-16T01:47:21;16.15;;;12.75;;
36189;SDS011;22232;50.914;13.858;2022-10-16T01:49:53;18.53;;;13.23;;
36189;SDS011;22232;50.914;13.858;2022-10-16T01:52:23;19.38;;;13.95;;
36189;SDS011;22232;50.914;13.858;2022-10-16T01:54:54;19.70;;;14.05;;
36189;SDS011;22232;50.914;13.858;2022-10-16T01:57:25;18.65;;;14.13;;
36189;SDS011;22232;50.914;13.858;2022-10-16T01:59:56;19.63;;;14.13;;
36189;SDS011;22232;50.914;13.858;2022-10-16T02:02:38;17.48;;;12.55;;
36189;SDS011;22232;50.914;13.858;2022-10-16T02:05:30;22.60;;;13.05;;
36189;SDS011;22232;50.914;13.858;2022-10-16T02:08:04;17.00;;;12.32;;
36189;SDS011;22232;50.914;13.858;2022-10-16T02:10:32;16.52;;;13.02;;
36189;SDS011;22232;50.914;13.858;2022-10-16T02:16:18;18.67;;;12.18;;
36189;SDS011;22232;50.914;13.858;2022-10-16T02:18:45;15.85;;;11.48;;
36189;SDS011;22232;50.914;13.858;2022-10-16T02:21:14;13.60;;;10.95;;
36189;SDS011;22232;50.914;13.858;2022-10-16T02:29:20;15.00;;;10.98;;
36189;SDS011;22232;50.914;13.858;2022-10-16T02:31:53;16.25;;;11.02;;
36189;SDS011;22232;50.914;13.858;2022-10-16T02:34:26;16.23;;;11.45;;
36189;SDS011;22232;50.914;13.858;2022-10-16T02:36:56;18.35;;;12.20;;
36189;SDS011;22232;50.914;13.858;2022-10-16T02:39:27;15.95;;;11.95;;
36189;SDS011;22232;50.914;13.858;2022-10-16T02:41:56;18.15;;;12.60;;
36189;SDS011;22232;50.914;13.858;2022-10-16T02:44:23;18.90;;;12.65;;
36189;SDS011;22232;50.914;13.858;2022-10-16T02:46:51;17.83;;;13.13;;
36189;SDS011;22232;50.914;13.858;2022-10-16T02:49:19;15.60;;;12.57;;
36189;SDS011;22232;50.914;13.858;2022-10-16T02:51:46;17.95;;;13.15;;
36189;SDS011;22232;50.914;13.858;2022-10-16T02:54:14;20.63;;;12.80;;
36189;SDS011;22232;50.914;13.858;2022-10-16T02:56:41;15.73;;;13.00;;
36189;SDS011;22232;50.914;13.858;2022-10-16T02:59:09;15.52;;;11.52;;
36189;SDS011;22232;50.914;13.858;2022-10-16T03:01:37;14.45;;;12.30;;
36189;SDS011;22232;50.914;13.858;2022-10-16T03:04:05;16.42;;;12.65;;
36189;SDS011;22232;50.914;13.858;2022-10-16T03:06:32;17.85;;;13.63;;
36189;SDS011;22232;50.914;13.858;2022-10-16T03:09:00;17.33;;;12.65;;
36189;SDS011;22232;50.914;13.858;2022-10-16T03:11:27;17.48;;;13.80;;
36189;SDS011;22232;50.914;13.858;2022-10-16T03:13:55;17.15;;;13.70;;
36189;SDS011;22232;50.914;13.858;2022-10-16T03:16:22;16.52;;;13.52;;
36189;SDS011;22232;50.914;13.858;2022-10-16T03:18:50;14.75;;;12.95;;
36189;SDS011;22232;50.914;13.858;2022-10-16T03:21:18;15.38;;;12.85;;
36189;SDS011;22232;50.914;13.858;2022-10-16T03:23:45;16.60;;;12.63;;
36189;SDS011;22232;50.914;13.858;2022-10-16T03:26:13;14.70;;;12.77;;
36189;SDS011;22232;50.914;13.858;2022-10-16T03:28:41;15.02;;;13.20;;
36189;SDS011;22232;50.914;13.858;2022-10-16T03:31:08;14.93;;;12.43;;
36189;SDS011;22232;50.914;13.858;2022-10-16T03:33:36;12.52;;;11.23;;
36189;SDS011;22232;50.914;13.858;2022-10-16T03:36:04;13.85;;;12.27;;
36189;SDS011;22232;50.914;13.858;2022-10-16T03:38:31;14.52;;;11.88;;
36189;SDS011;22232;50.914;13.858;2022-10-16T03:40:59;13.90;;;11.93;;
36189;SDS011;22232;50.914;13.858;2022-10-16T03:43:26;12.75;;;11.32;;
36189;SDS011;22232;50.914;13.858;2022-10-16T03:45:54;13.63;;;11.85;;
36189;SDS011;22232;50.914;13.858;2022-10-16T03:48:22;15.45;;;13.07;;
36189;SDS011;22232;50.914;13.858;2022-10-16T03:50:49;14.30;;;11.25;;
36189;SDS011;22232;50.914;13.858;2022-10-16T03:53:18;13.45;;;11.50;;
36189;SDS011;22232;50.914;13.858;2022-10-16T03:55:46;12.30;;;10.80;;
36189;SDS011;22232;50.914;13.858;2022-10-16T03:58:13;13.57;;;10.45;;
36189;SDS011;22232;50.914;13.858;2022-10-16T04:00:41;14.10;;;10.90;;
36189;SDS011;22232;50.914;13.858;2022-10-16T04:03:10;15.77;;;11.02;;
36189;SDS011;22232;50.914;13.858;2022-10-16T04:05:38;13.40;;;10.93;;
36189;SDS011;22232;50.914;13.858;2022-10-16T04:08:06;13.95;;;11.23;;
36189;SDS011;22232;50.914;13.858;2022-10-16T04:10:33;14.05;;;11.43;;
36189;SDS011;22232;50.914;13.858;2022-10-16T04:13:01;13.40;;;11.38;;
36189;SDS011;22232;50.914;13.858;2022-10-16T04:15:28;16.23;;;11.30;;
36189;SDS011;22232;50.914;13.858;2022-10-16T04:17:56;14.10;;;11.65;;
36189;SDS011;22232;50.914;13.858;2022-10-16T04:20:24;15.82;;;12.75;;
36189;SDS011;22232;50.914;13.858;2022-10-16T04:22:51;16.52;;;12.57;;
36189;SDS011;22232;50.914;13.858;2022-10-16T04:25:19;16.17;;;12.73;;
36189;SDS011;22232;50.914;13.858;2022-10-16T04:27:46;14.80;;;12.30;;
36189;SDS011;22232;50.914;13.858;2022-10-16T04:30:14;14.98;;;12.70;;
36189;SDS011;22232;50.914;13.858;2022-10-16T04:32:42;16.75;;;13.25;;
36189;SDS011;22232;50.914;13.858;2022-10-16T04:35:09;22.02;;;12.43;;
36189;SDS011;22232;50.914;13.858;2022-10-16T04:37:37;16.65;;;12.52;;
36189;SDS011;22232;50.914;13.858;2022-10-16T04:40:05;15.23;;;12.15;;
36189;SDS011;22232;50.914;13.858;2022-10-16T04:42:33;15.02;;;12.02;;
36189;SDS011;22232;50.914;13.858;2022-10-16T04:45:00;15.18;;;12.55;;
36189;SDS011;22232;50.914;13.858;2022-10-16T04:47:28;15.80;;;13.05;;
36189;SDS011;22232;50.914;13.858;2022-10-16T04:49:55;16.13;;;13.32;;
36189;SDS011;22232;50.914;13.858;2022-10-16T04:52:24;15.70;;;12.77;;
36189;SDS011;22232;50.914;13.858;2022-10-16T04:54:53;20.00;;;14.40;;
36189;SDS011;22232;50.914;13.858;2022-10-16T04:57:21;20.25;;;13.77;;
36189;SDS011;22232;50.914;13.858;2022-10-16T04:59:49;16.38;;;13.02;;
36189;SDS011;22232;50.914;13.858;2022-10-16T05:02:16;17.20;;;14.57;;
36189;SDS011;22232;50.914;13.858;2022-10-16T05:04:44;21.23;;;16.08;;
36189;SDS011;22232;50.914;13.858;2022-10-16T05:07:11;24.70;;;17.92;;
36189;SDS011;22232;50.914;13.858;2022-10-16T05:09:39;24.08;;;18.17;;
36189;SDS011;22232;50.914;13.858;2022-10-16T05:12:07;25.17;;;17.83;;
36189;SDS011;22232;50.914;13.858;2022-10-16T05:14:34;21.67;;;17.15;;
36189;SDS011;22232;50.914;13.858;2022-10-16T05:17:02;22.60;;;17.95;;
36189;SDS011;22232;50.914;13.858;2022-10-16T05:19:29;22.27;;;18.30;;
36189;SDS011;22232;50.914;13.858;2022-10-16T05:21:57;20.88;;;16.90;;
36189;SDS011;22232;50.914;13.858;2022-10-16T05:24:25;22.67;;;17.35;;
36189;SDS011;22232;50.914;13.858;2022-10-16T05:26:52;19.05;;;16.00;;
36189;SDS011;22232;50.914;13.858;2022-10-16T05:29:20;20.02;;;16.40;;
36189;SDS011;22232;50.914;13.858;2022-10-16T05:31:51;19.70;;;16.42;;
36189;SDS011;22232;50.914;13.858;2022-10-16T05:34:20;21.65;;;16.90;;
36189;SDS011;22232;50.914;13.858;2022-10-16T05:36:48;18.30;;;15.90;;
36189;SDS011;22232;50.914;13.858;2022-10-16T05:39:15;20.23;;;17.13;;
36189;SDS011;22232;50.914;13.858;2022-10-16T05:41:43;20.27;;;17.65;;
36189;SDS011;22232;50.914;13.858;2022-10-16T05:44:11;20.27;;;16.40;;
36189;SDS011;22232;50.914;13.858;2022-10-16T05:46:38;19.17;;;16.02;;
36189;SDS011;22232;50.914;13.858;2022-10-16T05:49:06;17.15;;;15.35;;
36189;SDS011;22232;50.914;13.858;2022-10-16T05:51:34;18.75;;;16.05;;
36189;SDS011;22232;50.914;13.858;2022-10-16T05:54:01;18.17;;;15.10;;
36189;SDS011;22232;50.914;13.858;2022-10-16T05:56:29;20.00;;;16.23;;
36189;SDS011;22232;50.914;13.858;2022-10-16T05:58:56;18.48;;;16.15;;
36189;SDS011;22232;50.914;13.858;2022-10-16T06:01:24;19.92;;;16.98;;
36189;SDS011;22232;50.914;13.858;2022-10-16T06:03:52;18.15;;;15.65;;
36189;SDS011;22232;50.914;13.858;2022-10-16T06:06:21;17.17;;;15.38;;
36189;SDS011;22232;50.914;13.858;2022-10-16T06:08:51;18.67;;;15.40;;
36189;SDS011;22232;50.914;13.858;2022-10-16T06:11:26;19.40;;;16.25;;
36189;SDS011;22232;50.914;13.858;2022-10-16T06:13:56;18.90;;;16.33;;
36189;SDS011;22232;50.914;13.858;2022-10-16T06:16:26;21.08;;;16.15;;
36189;SDS011;22232;50.914;13.858;2022-10-16T06:18:54;19.08;;;16.38;;
36189;SDS011;22232;50.914;13.858;2022-10-16T06:21:24;19.77;;;16.55;;
36189;SDS011;22232;50.914;13.858;2022-10-16T06:23:52;19.85;;;16.52;;
36189;SDS011;22232;50.914;13.858;2022-10-16T06:26:22;18.05;;;15.90;;
36189;SDS011;22232;50.914;13.858;2022-10-16T06:28:51;18.17;;;15.18;;
36189;SDS011;22232;50.914;13.858;2022-10-16T06:31:21;20.33;;;14.80;;
36189;SDS011;22232;50.914;13.858;2022-10-16T06:33:52;15.90;;;14.13;;
36189;SDS011;22232;50.914;13.858;2022-10-16T06:36:20;17.50;;;15.55;;
36189;SDS011;22232;50.914;13.858;2022-10-16T06:38:48;17.20;;;14.93;;
36189;SDS011;22232;50.914;13.858;2022-10-16T06:41:17;16.83;;;14.57;;
36189;SDS011;22232;50.914;13.858;2022-10-16T06:43:47;17.05;;;14.07;;
36189;SDS011;22232;50.914;13.858;2022-10-16T06:46:16;16.23;;;14.40;;
36189;SDS011;22232;50.914;13.858;2022-10-16T06:48:46;16.08;;;13.27;;
36189;SDS011;22232;50.914;13.858;2022-10-16T06:51:17;14.27;;;12.77;;
36189;SDS011;22232;50.914;13.858;2022-10-16T06:53:47;13.90;;;12.40;;
36189;SDS011;22232;50.914;13.858;2022-10-16T06:56:32;14.05;;;12.52;;
36189;SDS011;22232;50.914;13.858;2022-10-16T06:59:00;12.13;;;10.93;;
36189;SDS011;22232;50.914;13.858;2022-10-16T07:01:29;12.75;;;11.20;;
36189;SDS011;22232;50.914;13.858;2022-10-16T07:03:57;11.82;;;10.57;;
36189;SDS011;22232;50.914;13.858;2022-10-16T07:06:25;12.27;;;10.80;;
36189;SDS011;22232;50.914;13.858;2022-10-16T07:08:54;10.00;;;8.70;;
36189;SDS011;22232;50.914;13.858;2022-10-16T07:11:23;6.65;;;5.93;;
36189;SDS011;22232;50.914;13.858;2022-10-16T07:13:51;5.82;;;5.30;;
36189;SDS011;22232;50.914;13.858;2022-10-16T07:16:24;5.05;;;4.50;;
36189;SDS011;22232;50.914;13.858;2022-10-16T07:18:56;5.72;;;4.72;;
36189;SDS011;22232;50.914;13.858;2022-10-16T07:21:29;5.50;;;4.80;;
36189;SDS011;22232;50.914;13.858;2022-10-16T07:24:03;4.90;;;4.40;;
36189;SDS011;22232;50.914;13.858;2022-10-16T07:26:38;5.97;;;5.43;;
36189;SDS011;22232;50.914;13.858;2022-10-16T07:29:07;6.78;;;5.63;;
36189;SDS011;22232;50.914;13.858;2022-10-16T07:31:39;7.15;;;5.47;;
36189;SDS011;22232;50.914;13.858;2022-10-16T07:34:07;9.80;;;7.20;;
36189;SDS011;22232;50.914;13.858;2022-10-16T07:36:34;9.35;;;8.40;;
36189;SDS011;22232;50.914;13.858;2022-10-16T07:39:03;9.90;;;8.90;;
36189;SDS011;22232;50.914;13.858;2022-10-16T07:41:31;11.55;;;10.23;;
36189;SDS011;22232;50.914;13.858;2022-10-16T07:43:59;11.43;;;9.68;;
36189;SDS011;22232;50.914;13.858;2022-10-16T07:46:27;11.07;;;9.65;;
36189;SDS011;22232;50.914;13.858;2022-10-16T07:48:55;10.70;;;9.60;;
36189;SDS011;22232;50.914;13.858;2022-10-16T07:51:23;10.02;;;9.00;;
36189;SDS011;22232;50.914;13.858;2022-10-16T07:53:52;10.75;;;9.65;;
36189;SDS011;22232;50.914;13.858;2022-10-16T07:56:21;11.15;;;9.23;;
36189;SDS011;22232;50.914;13.858;2022-10-16T07:58:49;9.40;;;8.50;;
36189;SDS011;22232;50.914;13.858;2022-10-16T08:01:18;10.80;;;7.22;;
36189;SDS011;22232;50.914;13.858;2022-10-16T08:03:47;7.15;;;6.55;;
36189;SDS011;22232;50.914;13.858;2022-10-16T08:06:17;6.88;;;6.20;;
36189;SDS011;22232;50.914;13.858;2022-10-16T08:08:52;8.40;;;6.85;;
36189;SDS011;22232;50.914;13.858;2022-10-16T08:11:20;8.13;;;7.18;;
36189;SDS011;22232;50.914;13.858;2022-10-16T08:13:48;7.40;;;6.28;;
36189;SDS011;22232;50.914;13.858;2022-10-16T08:16:15;7.68;;;6.43;;
36189;SDS011;22232;50.914;13.858;2022-10-16T08:18:44;8.18;;;6.00;;
36189;SDS011;22232;50.914;13.858;2022-10-16T08:21:13;8.70;;;6.65;;
36189;SDS011;22232;50.914;13.858;2022-10-16T08:23:47;7.43;;;6.68;;
36189;SDS011;22232;50.914;13.858;2022-10-16T08:26:24;7.82;;;7.05;;
36189;SDS011;22232;50.914;13.858;2022-10-16T08:28:53;9.18;;;7.25;;
36189;SDS011;22232;50.914;13.858;2022-10-16T08:31:22;8.52;;;7.72;;
36189;SDS011;22232;50.914;13.858;2022-10-16T08:33:50;8.55;;;7.75;;
36189;SDS011;22232;50.914;13.858;2022-10-16T08:36:19;11.27;;;8.85;;
36189;SDS011;22232;50.914;13.858;2022-10-16T08:38:47;10.00;;;8.98;;
36189;SDS011;22232;50.914;13.858;2022-10-16T08:41:26;11.57;;;9.18;;
36189;SDS011;22232;50.914;13.858;2022-10-16T08:49:27;11.38;;;9.43;;
36189;SDS011;22232;50.914;13.858;2022-10-16T08:51:58;11.45;;;10.30;;
36189;SDS011;22232;50.914;13.858;2022-10-16T08:54:43;11.63;;;9.80;;
36189;SDS011;22232;50.914;13.858;2022-10-16T08:57:22;11.40;;;9.90;;
36189;SDS011;22232;50.914;13.858;2022-10-16T08:59:52;11.43;;;9.55;;
36189;SDS011;22232;50.914;13.858;2022-10-16T09:02:31;10.07;;;9.05;;
36189;SDS011;22232;50.914;13.858;2022-10-16T09:05:03;9.63;;;8.63;;
36189;SDS011;22232;50.914;13.858;2022-10-16T09:08:04;9.98;;;8.77;;
36189;SDS011;22232;50.914;13.858;2022-10-16T09:10:41;9.98;;;8.40;;
36189;SDS011;22232;50.914;13.858;2022-10-16T09:15:59;6.35;;;5.75;;
36189;SDS011;22232;50.914;13.858;2022-10-16T09:21:18;14.75;;;9.45;;
36189;SDS011;22232;50.914;13.858;2022-10-16T09:24:09;9.93;;;8.88;;
36189;SDS011;22232;50.914;13.858;2022-10-16T09:26:41;11.32;;;10.00;;
36189;SDS011;22232;50.914;13.858;2022-10-16T09:29:13;9.75;;;8.75;;
36189;SDS011;22232;50.914;13.858;2022-10-16T09:31:41;10.02;;;8.88;;
36189;SDS011;22232;50.914;13.858;2022-10-16T09:34:27;10.68;;;8.30;;
36189;SDS011;22232;50.914;13.858;2022-10-16T09:37:03;8.05;;;7.25;;
36189;SDS011;22232;50.914;13.858;2022-10-16T09:42:31;9.15;;;6.40;;
36189;SDS011;22232;50.914;13.858;2022-10-16T09:45:02;6.43;;;5.82;;
36189;SDS011;22232;50.914;13.858;2022-10-16T09:47:31;7.63;;;6.82;;
36189;SDS011;22232;50.914;13.858;2022-10-16T09:50:04;7.97;;;6.30;;
36189;SDS011;22232;50.914;13.858;2022-10-16T09:52:46;7.90;;;7.10;;
36189;SDS011;22232;50.914;13.858;2022-10-16T09:55:15;9.15;;;7.80;;
36189;SDS011;22232;50.914;13.858;2022-10-16T09:57:54;7.70;;;6.90;;
36189;SDS011;22232;50.914;13.858;2022-10-16T10:00:22;7.43;;;6.72;;
36189;SDS011;22232;50.914;13.858;2022-10-16T10:02:51;8.35;;;6.47;;
36189;SDS011;22232;50.914;13.858;2022-10-16T10:05:27;7.20;;;6.47;;
36189;SDS011;22232;50.914;13.858;2022-10-16T10:07:59;7.63;;;6.93;;
36189;SDS011;22232;50.914;13.858;2022-10-16T10:10:34;8.05;;;7.25;;
36189;SDS011;22232;50.914;13.858;2022-10-16T10:13:20;7.90;;;7.15;;
36189;SDS011;22232;50.914;13.858;2022-10-16T10:15:50;9.48;;;7.13;;
36189;SDS011;22232;50.914;13.858;2022-10-16T10:18:19;8.05;;;7.22;;
36189;SDS011;22232;50.914;13.858;2022-10-16T10:20:59;8.85;;;7.88;;
36189;SDS011;22232;50.914;13.858;2022-10-16T10:23:28;8.32;;;7.53;;
36189;SDS011;22232;50.914;13.858;2022-10-16T10:26:17;9.48;;;7.90;;
36189;SDS011;22232;50.914;13.858;2022-10-16T10:29:06;9.35;;;8.45;;
36189;SDS011;22232;50.914;13.858;2022-10-16T10:34:34;9.00;;;8.10;;
36189;SDS011;22232;50.914;13.858;2022-10-16T10:39:56;7.75;;;7.00;;
36189;SDS011;22232;50.914;13.858;2022-10-16T10:42:36;8.15;;;7.35;;
36189;SDS011;22232;50.914;13.858;2022-10-16T10:45:37;7.22;;;6.53;;
36189;SDS011;22232;50.914;13.858;2022-10-16T10:51:29;7.57;;;6.82;;
36189;SDS011;22232;50.914;13.858;2022-10-16T10:54:16;7.50;;;6.78;;
36189;SDS011;22232;50.914;13.858;2022-10-16T11:02:13;9.40;;;7.38;;
36189;SDS011;22232;50.914;13.858;2022-10-16T11:07:52;11.15;;;7.68;;
36189;SDS011;22232;50.914;13.858;2022-10-16T11:10:27;8.73;;;7.93;;
36189;SDS011;22232;50.914;13.858;2022-10-16T11:13:10;7.68;;;6.97;;
36189;SDS011;22232;50.914;13.858;2022-10-16T11:15:42;8.60;;;7.80;;
36189;SDS011;22232;50.914;13.858;2022-10-16T11:18:16;8.23;;;7.53;;
36189;SDS011;22232;50.914;13.858;2022-10-16T11:20:57;7.82;;;7.13;;
36189;SDS011;22232;50.914;13.858;2022-10-16T11:23:31;7.90;;;6.90;;
36189;SDS011;22232;50.914;13.858;2022-10-16T11:27:43;7.82;;;6.70;;
36189;SDS011;22232;50.914;13.858;2022-10-16T11:30:20;7.25;;;6.55;;
36189;SDS011;22232;50.914;13.858;2022-10-16T11:33:02;7.47;;;6.75;;
36189;SDS011;22232;50.914;13.858;2022-10-16T11:35:48;5.47;;;4.97;;
36189;SDS011;22232;50.914;13.858;2022-10-16T11:39:11;5.82;;;4.90;;
36189;SDS011;22232;50.914;13.858;2022-10-16T11:44:35;3.55;;;2.72;;
36189;SDS011;22232;50.914;13.858;2022-10-16T11:50:34;2.08;;;1.35;;
36189;SDS011;22232;50.914;13.858;2022-10-16T11:53:20;1.00;;;0.77;;
36189;SDS011;22232;50.914;13.858;2022-10-16T11:55:52;0.77;;;0.77;;
36189;SDS011;22232;50.914;13.858;2022-10-16T11:58:27;3.15;;;0.88;;
36189;SDS011;22232;50.914;13.858;2022-10-16T12:00:59;1.92;;;0.75;;
36189;SDS011;22232;50.914;13.858;2022-10-16T12:06:42;0.82;;;0.82;;
36189;SDS011;22232;50.914;13.858;2022-10-16T12:09:25;0.75;;;0.30;;
36189;SDS011;22232;50.914;13.858;2022-10-16T12:11:54;0.50;;;0.50;;
36189;SDS011;22232;50.914;13.858;2022-10-16T12:16:59;0.85;;;0.43;;
36189;SDS011;22232;50.914;13.858;2022-10-16T12:19:29;0.95;;;0.40;;
36189;SDS011;22232;50.914;13.858;2022-10-16T12:21:58;1.02;;;0.50;;
36189;SDS011;22232;50.914;13.858;2022-10-16T12:24:38;2.20;;;0.40;;
36189;SDS011;22232;50.914;13.858;2022-10-16T12:27:24;2.20;;;0.38;;
36189;SDS011;22232;50.914;13.858;2022-10-16T12:30:02;0.30;;;0.30;;
36189;SDS011;22232;50.914;13.858;2022-10-16T12:32:33;0.30;;;0.30;;
36189;SDS011;22232;50.914;13.858;2022-10-16T12:35:23;3.50;;;0.80;;
36189;SDS011;22232;50.914;13.858;2022-10-16T12:37:54;1.60;;;1.10;;
36189;SDS011;22232;50.914;13.858;2022-10-16T12:40:32;0.60;;;0.60;;
36189;SDS011;22232;50.914;13.858;2022-10-16T12:43:11;0.52;;;0.52;;
36189;SDS011;22232;50.914;13.858;2022-10-16T12:48:31;1.20;;;0.38;;
36189;SDS011;22232;50.914;13.858;2022-10-16T12:51:22;0.98;;;0.45;;
36189;SDS011;22232;50.914;13.858;2022-10-16T12:54:03;0.50;;;0.50;;
36189;SDS011;22232;50.914;13.858;2022-10-16T13:07:50;1.15;;;0.50;;
36189;SDS011;22232;50.914;13.858;2022-10-16T13:13:22;1.45;;;0.70;;
36189;SDS011;22232;50.914;13.858;2022-10-16T13:26:53;0.57;;;0.50;;
36189;SDS011;22232;50.914;13.858;2022-10-16T13:29:32;0.98;;;0.60;;
36189;SDS011;22232;50.914;13.858;2022-10-16T13:32:01;1.60;;;0.70;;
36189;SDS011;22232;50.914;13.858;2022-10-16T13:34:43;0.95;;;0.70;;
36189;SDS011;22232;50.914;13.858;2022-10-16T13:37:20;2.70;;;2.50;;
36189;SDS011;22232;50.914;13.858;2022-10-16T13:39:49;3.72;;;2.60;;
36189;SDS011;22232;50.914;13.858;2022-10-16T13:42:24;6.70;;;2.75;;
36189;SDS011;22232;50.914;13.858;2022-10-16T13:44:55;3.88;;;2.72;;
36189;SDS011;22232;50.914;13.858;2022-10-16T13:47:24;2.97;;;2.33;;
36189;SDS011;22232;50.914;13.858;2022-10-16T13:50:01;3.42;;;2.13;;
36189;SDS011;22232;50.914;13.858;2022-10-16T13:52:33;6.70;;;2.38;;
36189;SDS011;22232;50.914;13.858;2022-10-16T13:55:01;3.05;;;2.30;;
36189;SDS011;22232;50.914;13.858;2022-10-16T13:57:28;2.53;;;2.30;;
36189;SDS011;22232;50.914;13.858;2022-10-16T13:59:56;2.40;;;2.20;;
36189;SDS011;22232;50.914;13.858;2022-10-16T14:02:25;3.92;;;2.40;;
36189;SDS011;22232;50.914;13.858;2022-10-16T14:04:56;2.67;;;2.33;;
36189;SDS011;22232;50.914;13.858;2022-10-16T14:07:29;4.28;;;2.30;;
36189;SDS011;22232;50.914;13.858;2022-10-16T14:10:01;5.65;;;3.60;;
36189;SDS011;22232;50.914;13.858;2022-10-16T14:12:32;2.97;;;1.20;;
36189;SDS011;22232;50.914;13.858;2022-10-16T14:15:00;1.40;;;0.80;;
36189;SDS011;22232;50.914;13.858;2022-10-16T14:17:29;3.08;;;0.68;;
36189;SDS011;22232;50.914;13.858;2022-10-16T14:20:04;4.07;;;0.90;;
36189;SDS011;22232;50.914;13.858;2022-10-16T14:22:37;1.33;;;0.80;;
36189;SDS011;22232;50.914;13.858;2022-10-16T14:30:30;0.98;;;0.68;;
36189;SDS011;22232;50.914;13.858;2022-10-16T14:33:00;1.70;;;0.90;;
36189;SDS011;22232;50.914;13.858;2022-10-16T14:35:36;0.87;;;0.70;;
36189;SDS011;22232;50.914;13.858;2022-10-16T14:38:06;0.90;;;0.75;;
36189;SDS011;22232;50.914;13.858;2022-10-16T14:40:46;0.75;;;0.75;;
36189;SDS011;22232;50.914;13.858;2022-10-16T14:43:28;1.38;;;0.90;;
36189;SDS011;22232;50.914;13.858;2022-10-16T14:46:23;1.38;;;0.80;;
36189;SDS011;22232;50.914;13.858;2022-10-16T14:49:00;1.00;;;1.00;;
36189;SDS011;22232;50.914;13.858;2022-10-16T14:51:31;1.20;;;1.10;;
36189;SDS011;22232;50.914;13.858;2022-10-16T14:53:59;1.02;;;0.90;;
36189;SDS011;22232;50.914;13.858;2022-10-16T14:56:31;1.90;;;0.95;;
36189;SDS011;22232;50.914;13.858;2022-10-16T14:59:14;1.17;;;1.08;;
36189;SDS011;22232;50.914;13.858;2022-10-16T15:01:45;0.70;;;0.70;;
36189;SDS011;22232;50.914;13.858;2022-10-16T15:04:13;1.35;;;1.00;;
36189;SDS011;22232;50.914;13.858;2022-10-16T15:06:42;1.85;;;0.85;;
36189;SDS011;22232;50.914;13.858;2022-10-16T15:09:10;1.00;;;0.90;;
36189;SDS011;22232;50.914;13.858;2022-10-16T15:11:37;0.70;;;0.70;;
36189;SDS011;22232;50.914;13.858;2022-10-16T15:14:05;0.80;;;0.80;;
36189;SDS011;22232;50.914;13.858;2022-10-16T15:16:35;1.23;;;0.88;;
36189;SDS011;22232;50.914;13.858;2022-10-16T15:19:03;1.17;;;0.73;;
36189;SDS011;22232;50.914;13.858;2022-10-16T15:21:31;1.15;;;0.68;;
36189;SDS011;22232;50.914;13.858;2022-10-16T15:24:00;0.95;;;0.90;;
36189;SDS011;22232;50.914;13.858;2022-10-16T15:26:28;0.82;;;0.70;;
36189;SDS011;22232;50.914;13.858;2022-10-16T15:28:56;1.42;;;1.08;;
36189;SDS011;22232;50.914;13.858;2022-10-16T15:31:24;1.25;;;1.00;;
36189;SDS011;22232;50.914;13.858;2022-10-16T15:33:52;1.00;;;1.00;;
36189;SDS011;22232;50.914;13.858;2022-10-16T15:36:26;1.20;;;1.10;;
36189;SDS011;22232;50.914;13.858;2022-10-16T15:38:57;0.68;;;0.68;;
36189;SDS011;22232;50.914;13.858;2022-10-16T15:41:25;0.88;;;0.82;;
36189;SDS011;22232;50.914;13.858;2022-10-16T15:43:52;0.93;;;0.80;;
36189;SDS011;22232;50.914;13.858;2022-10-16T15:46:21;2.15;;;1.20;;
36189;SDS011;22232;50.914;13.858;2022-10-16T15:48:50;1.00;;;0.90;;
36189;SDS011;22232;50.914;13.858;2022-10-16T15:51:22;3.28;;;1.27;;
36189;SDS011;22232;50.914;13.858;2022-10-16T15:53:51;1.20;;;1.10;;
36189;SDS011;22232;50.914;13.858;2022-10-16T15:56:19;2.35;;;1.30;;
36189;SDS011;22232;50.914;13.858;2022-10-16T15:58:49;1.20;;;1.10;;
36189;SDS011;22232;50.914;13.858;2022-10-16T16:01:16;0.85;;;0.85;;
36189;SDS011;22232;50.914;13.858;2022-10-16T16:03:44;1.83;;;1.17;;
36189;SDS011;22232;50.914;13.858;2022-10-16T16:06:12;1.00;;;1.00;;
36189;SDS011;22232;50.914;13.858;2022-10-16T16:08:41;1.45;;;1.00;;
36189;SDS011;22232;50.914;13.858;2022-10-16T16:11:09;1.70;;;1.10;;
36189;SDS011;22232;50.914;13.858;2022-10-16T16:13:38;0.98;;;0.80;;
36189;SDS011;22232;50.914;13.858;2022-10-16T16:16:08;1.27;;;1.17;;
36189;SDS011;22232;50.914;13.858;2022-10-16T16:18:38;2.38;;;1.27;;
36189;SDS011;22232;50.914;13.858;2022-10-16T16:21:07;1.30;;;1.13;;
36189;SDS011;22232;50.914;13.858;2022-10-16T16:23:36;1.45;;;1.20;;